Portada
METAR-TAF:

METAR-TAF

Aeropuertos :

León, España

Aeropuerto de León

latitud: 42-35N, longitud: 005-39W, altitud: 926 m

Observación

El informe se hizo hace 39 minutos, a las 04:00 UTC
Viento 2 kt del noroeste
Temperatura 9°C
Humedad 87%
Presión 1014 hPa
Visibilidad 10 km o más
sin nubes por debajo de 1500 m y sin presencia de cumulonimbus.

METAR: LELN 210400Z 32002KT CAVOK 09/07 Q1014

Hora: 06:39 (04:39 UTC)

Pronóstico

El informe se hizo hace 2 horas y 39 minutos, a las 02:00 UTC
Pronóstico válido del 21 a las 03 UTC al 21 a las 12 UTC
Viento 6 kt del norte-noreste
Visibilidad 10 km o más
Nubes dispersas a una altura de 2000 ft
Evolucionando progresivamente
del 21 a las 10 UTC al 21 a las 12 UTC
Viento 12 kt del oeste

TAF: LELN 210200Z 2103/2112 02006KT 9999 SCT020 BECMG 2110/2112 26012KT

Observaciones y pronósticos meteorológicos de más de 4000 aeropuertos (mensajes METAR y TAF).

Los puntos amarillos y rojos representan las estaciones disponibles.

Ponga el ratón en el punto deseado para ver el nombre de la estación.

Haga clic para ver las observaciones y los pronósticos meteorológicos.

Para cambiar el mapa : haga clic en los botones verdes con una cruz de color negro para hacer un zoom, en el botón verde con un guión para alejar o en las flechas verdes para mapas adyacentes.


METAR-TAF: